sensor_id;sensor_type;location;lat;lon;timestamp;temperature;humidity
19803;DHT22;66074;50.764;6.090;2023-05-07T00:00:22;15.90;99.10
19803;DHT22;66074;50.764;6.090;2023-05-07T00:02:48;15.90;99.10
19803;DHT22;66074;50.764;6.090;2023-05-07T00:05:16;15.90;99.00
19803;DHT22;66074;50.764;6.090;2023-05-07T00:07:41;15.90;99.00
19803;DHT22;66074;50.764;6.090;2023-05-07T00:10:07;15.90;99.00
19803;DHT22;66074;50.764;6.090;2023-05-07T00:12:33;15.90;98.90
19803;DHT22;66074;50.764;6.090;2023-05-07T00:15:01;15.90;98.90
19803;DHT22;66074;50.764;6.090;2023-05-07T00:17:26;15.90;98.80
19803;DHT22;66074;50.764;6.090;2023-05-07T00:19:52;16.00;98.90
19803;DHT22;66074;50.764;6.090;2023-05-07T00:22:18;16.00;98.70
19803;DHT22;66074;50.764;6.090;2023-05-07T00:24:43;16.00;98.70
19803;DHT22;66074;50.764;6.090;2023-05-07T00:27:09;16.00;98.60
19803;DHT22;66074;50.764;6.090;2023-05-07T00:29:34;16.10;98.60
19803;DHT22;66074;50.764;6.090;2023-05-07T00:32:01;16.10;98.50
19803;DHT22;66074;50.764;6.090;2023-05-07T00:34:26;16.10;98.50
19803;DHT22;66074;50.764;6.090;2023-05-07T00:36:52;16.10;98.40
19803;DHT22;66074;50.764;6.090;2023-05-07T00:39:18;16.10;98.30
19803;DHT22;66074;50.764;6.090;2023-05-07T00:41:44;16.20;98.30
19803;DHT22;66074;50.764;6.090;2023-05-07T00:44:10;16.20;98.30
19803;DHT22;66074;50.764;6.090;2023-05-07T00:46:35;16.20;98.30
19803;DHT22;66074;50.764;6.090;2023-05-07T00:49:01;16.10;98.30
19803;DHT22;66074;50.764;6.090;2023-05-07T00:51:27;16.20;98.30
19803;DHT22;66074;50.764;6.090;2023-05-07T00:53:53;16.20;98.30
19803;DHT22;66074;50.764;6.090;2023-05-07T00:56:21;16.20;98.20
19803;DHT22;66074;50.764;6.090;2023-05-07T00:58:47;16.20;98.20
19803;DHT22;66074;50.764;6.090;2023-05-07T01:01:12;16.20;98.20
19803;DHT22;66074;50.764;6.090;2023-05-07T01:03:38;16.20;98.20
19803;DHT22;66074;50.764;6.090;2023-05-07T01:06:04;16.20;98.20
19803;DHT22;66074;50.764;6.090;2023-05-07T01:08:32;16.20;98.20
19803;DHT22;66074;50.764;6.090;2023-05-07T01:10:58;16.20;98.10
19803;DHT22;66074;50.764;6.090;2023-05-07T01:13:24;16.30;98.20
19803;DHT22;66074;50.764;6.090;2023-05-07T01:15:51;16.30;98.20
19803;DHT22;66074;50.764;6.090;2023-05-07T01:18:16;16.30;98.10
19803;DHT22;66074;50.764;6.090;2023-05-07T01:20:42;16.30;98.10
19803;DHT22;66074;50.764;6.090;2023-05-07T01:23:08;16.30;98.10
19803;DHT22;66074;50.764;6.090;2023-05-07T01:25:36;16.30;98.10
19803;DHT22;66074;50.764;6.090;2023-05-07T01:28:01;16.30;98.00
19803;DHT22;66074;50.764;6.090;2023-05-07T01:30:27;16.30;98.00
19803;DHT22;66074;50.764;6.090;2023-05-07T01:33:02;16.30;98.10
19803;DHT22;66074;50.764;6.090;2023-05-07T01:35:32;16.30;98.10
19803;DHT22;66074;50.764;6.090;2023-05-07T01:38:00;16.20;98.00
19803;DHT22;66074;50.764;6.090;2023-05-07T01:40:26;16.10;98.10
19803;DHT22;66074;50.764;6.090;2023-05-07T01:42:53;16.00;98.20
19803;DHT22;66074;50.764;6.090;2023-05-07T01:45:19;16.00;98.30
19803;DHT22;66074;50.764;6.090;2023-05-07T01:47:45;15.90;98.30
19803;DHT22;66074;50.764;6.090;2023-05-07T01:50:11;15.90;98.40
19803;DHT22;66074;50.764;6.090;2023-05-07T01:52:40;15.90;98.50
19803;DHT22;66074;50.764;6.090;2023-05-07T01:55:06;15.80;98.60
19803;DHT22;66074;50.764;6.090;2023-05-07T01:57:32;15.80;98.60
19803;DHT22;66074;50.764;6.090;2023-05-07T01:59:58;15.70;98.70
19803;DHT22;66074;50.764;6.090;2023-05-07T02:02:23;15.70;98.80
19803;DHT22;66074;50.764;6.090;2023-05-07T02:04:49;15.70;98.90
19803;DHT22;66074;50.764;6.090;2023-05-07T02:07:14;15.60;98.90
19803;DHT22;66074;50.764;6.090;2023-05-07T02:09:40;15.60;99.00
19803;DHT22;66074;50.764;6.090;2023-05-07T02:12:06;15.50;99.00
19803;DHT22;66074;50.764;6.090;2023-05-07T02:14:31;15.50;99.00
19803;DHT22;66074;50.764;6.090;2023-05-07T02:16:57;15.50;99.10
19803;DHT22;66074;50.764;6.090;2023-05-07T02:19:23;15.50;99.20
19803;DHT22;66074;50.764;6.090;2023-05-07T02:21:48;15.40;99.30
19803;DHT22;66074;50.764;6.090;2023-05-07T02:24:14;15.40;99.40
19803;DHT22;66074;50.764;6.090;2023-05-07T02:26:40;15.40;99.50
19803;DHT22;66074;50.764;6.090;2023-05-07T02:29:06;15.40;99.60
19803;DHT22;66074;50.764;6.090;2023-05-07T02:31:32;15.40;99.60
19803;DHT22;66074;50.764;6.090;2023-05-07T02:33:59;15.40;99.60
19803;DHT22;66074;50.764;6.090;2023-05-07T02:36:25;15.50;99.70
19803;DHT22;66074;50.764;6.090;2023-05-07T02:38:52;15.50;99.70
19803;DHT22;66074;50.764;6.090;2023-05-07T02:41:17;15.60;99.70
19803;DHT22;66074;50.764;6.090;2023-05-07T02:43:43;15.60;99.70
19803;DHT22;66074;50.764;6.090;2023-05-07T02:46:09;15.60;99.70
19803;DHT22;66074;50.764;6.090;2023-05-07T02:48:34;15.60;99.60
19803;DHT22;66074;50.764;6.090;2023-05-07T02:51:01;15.60;99.60
19803;DHT22;66074;50.764;6.090;2023-05-07T02:53:27;15.60;99.60
19803;DHT22;66074;50.764;6.090;2023-05-07T02:55:56;15.60;99.60
19803;DHT22;66074;50.764;6.090;2023-05-07T02:58:22;15.50;99.60
19803;DHT22;66074;50.764;6.090;2023-05-07T03:00:48;15.50;99.60
19803;DHT22;66074;50.764;6.090;2023-05-07T03:03:14;15.50;99.70
19803;DHT22;66074;50.764;6.090;2023-05-07T03:05:42;15.50;99.70
19803;DHT22;66074;50.764;6.090;2023-05-07T03:08:09;15.50;99.80
19803;DHT22;66074;50.764;6.090;2023-05-07T03:10:35;15.50;99.80
19803;DHT22;66074;50.764;6.090;2023-05-07T03:13:01;15.50;99.80
19803;DHT22;66074;50.764;6.090;2023-05-07T03:15:27;15.50;99.90
19803;DHT22;66074;50.764;6.090;2023-05-07T03:17:53;15.50;99.90
19803;DHT22;66074;50.764;6.090;2023-05-07T03:20:19;15.40;99.90
19803;DHT22;66074;50.764;6.090;2023-05-07T03:22:44;15.40;99.90
19803;DHT22;66074;50.764;6.090;2023-05-07T03:25:10;15.40;99.90
19803;DHT22;66074;50.764;6.090;2023-05-07T03:27:36;15.40;99.90
19803;DHT22;66074;50.764;6.090;2023-05-07T03:30:02;15.50;99.90
19803;DHT22;66074;50.764;6.090;2023-05-07T03:32:28;15.50;99.90
19803;DHT22;66074;50.764;6.090;2023-05-07T03:34:53;15.50;99.90
19803;DHT22;66074;50.764;6.090;2023-05-07T03:37:19;15.50;99.90
19803;DHT22;66074;50.764;6.090;2023-05-07T03:39:45;15.50;99.90
19803;DHT22;66074;50.764;6.090;2023-05-07T03:42:10;15.60;99.90
19803;DHT22;66074;50.764;6.090;2023-05-07T03:44:36;15.60;99.90
19803;DHT22;66074;50.764;6.090;2023-05-07T03:47:02;15.60;99.90
19803;DHT22;66074;50.764;6.090;2023-05-07T03:49:28;15.60;99.90
19803;DHT22;66074;50.764;6.090;2023-05-07T03:51:53;15.60;99.90
19803;DHT22;66074;50.764;6.090;2023-05-07T03:54:19;15.70;99.90
19803;DHT22;66074;50.764;6.090;2023-05-07T03:56:45;15.70;99.90
19803;DHT22;66074;50.764;6.090;2023-05-07T03:59:12;15.60;99.90
19803;DHT22;66074;50.764;6.090;2023-05-07T04:01:38;15.60;99.90
19803;DHT22;66074;50.764;6.090;2023-05-07T04:04:03;15.60;99.90
19803;DHT22;66074;50.764;6.090;2023-05-07T04:06:29;15.50;99.90
19803;DHT22;66074;50.764;6.090;2023-05-07T04:08:55;15.50;99.90
19803;DHT22;66074;50.764;6.090;2023-05-07T04:11:21;15.50;99.90
19803;DHT22;66074;50.764;6.090;2023-05-07T04:13:47;15.50;99.90
19803;DHT22;66074;50.764;6.090;2023-05-07T04:16:12;15.50;99.90
19803;DHT22;66074;50.764;6.090;2023-05-07T04:18:38;15.50;99.90
19803;DHT22;66074;50.764;6.090;2023-05-07T04:21:04;15.50;99.90
19803;DHT22;66074;50.764;6.090;2023-05-07T04:23:30;15.50;99.90
19803;DHT22;66074;50.764;6.090;2023-05-07T04:25:56;15.60;99.90
19803;DHT22;66074;50.764;6.090;2023-05-07T04:28:23;15.60;99.90
19803;DHT22;66074;50.764;6.090;2023-05-07T04:30:49;15.60;99.90
19803;DHT22;66074;50.764;6.090;2023-05-07T04:33:15;15.60;99.90
19803;DHT22;66074;50.764;6.090;2023-05-07T04:35:43;15.60;99.90
19803;DHT22;66074;50.764;6.090;2023-05-07T04:38:09;15.60;99.90
19803;DHT22;66074;50.764;6.090;2023-05-07T04:40:35;15.70;99.90
19803;DHT22;66074;50.764;6.090;2023-05-07T04:43:01;15.70;99.90
19803;DHT22;66074;50.764;6.090;2023-05-07T04:45:27;15.80;99.90
19803;DHT22;66074;50.764;6.090;2023-05-07T04:47:52;15.80;99.90
19803;DHT22;66074;50.764;6.090;2023-05-07T04:50:18;15.80;99.90
19803;DHT22;66074;50.764;6.090;2023-05-07T04:52:45;15.80;99.90
19803;DHT22;66074;50.764;6.090;2023-05-07T04:55:11;15.90;99.90
19803;DHT22;66074;50.764;6.090;2023-05-07T04:57:36;15.90;99.90
19803;DHT22;66074;50.764;6.090;2023-05-07T05:00:05;16.00;99.90
19803;DHT22;66074;50.764;6.090;2023-05-07T05:02:31;16.00;99.90
19803;DHT22;66074;50.764;6.090;2023-05-07T05:04:56;16.00;99.90
19803;DHT22;66074;50.764;6.090;2023-05-07T05:07:22;16.10;99.90
19803;DHT22;66074;50.764;6.090;2023-05-07T05:09:48;16.10;99.90
19803;DHT22;66074;50.764;6.090;2023-05-07T05:12:13;16.20;99.90
19803;DHT22;66074;50.764;6.090;2023-05-07T05:14:39;16.20;99.90
19803;DHT22;66074;50.764;6.090;2023-05-07T05:17:04;16.20;99.90
19803;DHT22;66074;50.764;6.090;2023-05-07T05:19:30;16.20;99.90
19803;DHT22;66074;50.764;6.090;2023-05-07T05:21:56;16.20;99.90
19803;DHT22;66074;50.764;6.090;2023-05-07T05:24:21;16.10;99.90
19803;DHT22;66074;50.764;6.090;2023-05-07T05:26:47;16.20;99.90
19803;DHT22;66074;50.764;6.090;2023-05-07T05:29:13;16.20;99.90
19803;DHT22;66074;50.764;6.090;2023-05-07T05:31:38;16.30;99.90
19803;DHT22;66074;50.764;6.090;2023-05-07T05:34:04;16.30;99.90
19803;DHT22;66074;50.764;6.090;2023-05-07T05:36:29;16.30;99.90
19803;DHT22;66074;50.764;6.090;2023-05-07T05:38:56;16.30;99.90
19803;DHT22;66074;50.764;6.090;2023-05-07T05:41:21;16.30;99.90
19803;DHT22;66074;50.764;6.090;2023-05-07T05:43:48;16.30;99.90
19803;DHT22;66074;50.764;6.090;2023-05-07T05:46:14;16.40;99.90
19803;DHT22;66074;50.764;6.090;2023-05-07T05:48:40;16.50;99.90
19803;DHT22;66074;50.764;6.090;2023-05-07T05:51:06;16.60;99.90
19803;DHT22;66074;50.764;6.090;2023-05-07T05:53:31;16.60;99.80
19803;DHT22;66074;50.764;6.090;2023-05-07T05:55:57;16.70;99.70
19803;DHT22;66074;50.764;6.090;2023-05-07T05:58:23;16.70;99.60
19803;DHT22;66074;50.764;6.090;2023-05-07T06:00:48;16.70;99.60
19803;DHT22;66074;50.764;6.090;2023-05-07T06:03:16;16.80;99.60
19803;DHT22;66074;50.764;6.090;2023-05-07T06:05:42;16.80;99.50
19803;DHT22;66074;50.764;6.090;2023-05-07T06:08:07;16.90;99.50
19803;DHT22;66074;50.764;6.090;2023-05-07T06:10:33;16.90;99.40
19803;DHT22;66074;50.764;6.090;2023-05-07T06:12:59;16.90;99.30
19803;DHT22;66074;50.764;6.090;2023-05-07T06:15:24;17.00;99.30
19803;DHT22;66074;50.764;6.090;2023-05-07T06:17:50;17.10;99.30
19803;DHT22;66074;50.764;6.090;2023-05-07T06:20:16;17.20;99.20
19803;DHT22;66074;50.764;6.090;2023-05-07T06:22:41;17.30;99.20
19803;DHT22;66074;50.764;6.090;2023-05-07T06:25:07;17.30;99.10
19803;DHT22;66074;50.764;6.090;2023-05-07T06:27:33;17.50;99.00
19803;DHT22;66074;50.764;6.090;2023-05-07T06:29:59;17.50;98.90
19803;DHT22;66074;50.764;6.090;2023-05-07T06:32:24;17.50;98.70
19803;DHT22;66074;50.764;6.090;2023-05-07T06:34:50;17.60;98.70
19803;DHT22;66074;50.764;6.090;2023-05-07T06:37:15;17.60;98.70
19803;DHT22;66074;50.764;6.090;2023-05-07T06:39:41;17.60;98.50
19803;DHT22;66074;50.764;6.090;2023-05-07T06:42:07;17.60;98.50
19803;DHT22;66074;50.764;6.090;2023-05-07T06:44:32;17.70;98.40
19803;DHT22;66074;50.764;6.090;2023-05-07T06:46:58;17.70;98.40
19803;DHT22;66074;50.764;6.090;2023-05-07T06:49:24;17.80;98.40
19803;DHT22;66074;50.764;6.090;2023-05-07T06:51:49;17.80;98.30
19803;DHT22;66074;50.764;6.090;2023-05-07T06:54:15;17.90;98.30
19803;DHT22;66074;50.764;6.090;2023-05-07T06:56:41;17.90;98.20
19803;DHT22;66074;50.764;6.090;2023-05-07T06:59:07;18.00;98.20
19803;DHT22;66074;50.764;6.090;2023-05-07T07:01:32;18.10;98.10
19803;DHT22;66074;50.764;6.090;2023-05-07T07:03:58;18.10;98.00
19803;DHT22;66074;50.764;6.090;2023-05-07T07:06:24;18.20;97.90
19803;DHT22;66074;50.764;6.090;2023-05-07T07:08:50;18.30;97.80
19803;DHT22;66074;50.764;6.090;2023-05-07T07:11:16;18.30;97.60
19803;DHT22;66074;50.764;6.090;2023-05-07T07:13:42;18.40;97.50
19803;DHT22;66074;50.764;6.090;2023-05-07T07:16:08;18.50;97.30
19803;DHT22;66074;50.764;6.090;2023-05-07T07:18:34;18.60;97.20
19803;DHT22;66074;50.764;6.090;2023-05-07T07:21:01;18.60;97.00
19803;DHT22;66074;50.764;6.090;2023-05-07T07:23:26;18.60;97.00
19803;DHT22;66074;50.764;6.090;2023-05-07T07:25:52;18.70;96.90
19803;DHT22;66074;50.764;6.090;2023-05-07T07:28:20;18.70;96.80
19803;DHT22;66074;50.764;6.090;2023-05-07T07:30:46;18.70;96.70
19803;DHT22;66074;50.764;6.090;2023-05-07T07:33:11;18.80;96.50
19803;DHT22;66074;50.764;6.090;2023-05-07T07:35:37;18.90;96.40
19803;DHT22;66074;50.764;6.090;2023-05-07T07:38:03;18.80;96.10
19803;DHT22;66074;50.764;6.090;2023-05-07T07:40:28;18.90;96.00
19803;DHT22;66074;50.764;6.090;2023-05-07T07:42:54;18.90;95.90
19803;DHT22;66074;50.764;6.090;2023-05-07T07:45:21;18.90;95.80
19803;DHT22;66074;50.764;6.090;2023-05-07T07:47:47;19.00;95.80
19803;DHT22;66074;50.764;6.090;2023-05-07T07:50:12;19.10;95.90
19803;DHT22;66074;50.764;6.090;2023-05-07T07:52:41;19.20;95.90
19803;DHT22;66074;50.764;6.090;2023-05-07T07:55:10;19.30;95.80
19803;DHT22;66074;50.764;6.090;2023-05-07T07:57:39;19.40;95.80
19803;DHT22;66074;50.764;6.090;2023-05-07T08:00:05;19.50;95.70
19803;DHT22;66074;50.764;6.090;2023-05-07T08:02:32;19.50;95.50
19803;DHT22;66074;50.764;6.090;2023-05-07T08:04:58;19.50;95.50
19803;DHT22;66074;50.764;6.090;2023-05-07T08:07:23;19.60;95.50
19803;DHT22;66074;50.764;6.090;2023-05-07T08:09:49;19.60;95.30
19803;DHT22;66074;50.764;6.090;2023-05-07T08:12:15;19.70;95.10
19803;DHT22;66074;50.764;6.090;2023-05-07T08:14:41;19.80;95.10
19803;DHT22;66074;50.764;6.090;2023-05-07T08:17:07;19.90;94.90
19803;DHT22;66074;50.764;6.090;2023-05-07T08:19:35;20.00;94.90
19803;DHT22;66074;50.764;6.090;2023-05-07T08:22:00;20.00;94.40
19803;DHT22;66074;50.764;6.090;2023-05-07T08:24:26;20.10;94.50
19803;DHT22;66074;50.764;6.090;2023-05-07T08:26:55;20.10;94.40
19803;DHT22;66074;50.764;6.090;2023-05-07T08:29:20;20.10;94.00
19803;DHT22;66074;50.764;6.090;2023-05-07T08:31:46;20.20;94.30
19803;DHT22;66074;50.764;6.090;2023-05-07T08:34:12;20.30;94.10
19803;DHT22;66074;50.764;6.090;2023-05-07T08:36:38;20.30;94.10
19803;DHT22;66074;50.764;6.090;2023-05-07T08:39:03;20.40;94.10
19803;DHT22;66074;50.764;6.090;2023-05-07T08:41:29;20.60;94.20
19803;DHT22;66074;50.764;6.090;2023-05-07T08:43:59;20.70;94.10
19803;DHT22;66074;50.764;6.090;2023-05-07T08:46:31;20.70;94.30
19803;DHT22;66074;50.764;6.090;2023-05-07T08:48:56;20.80;93.70
19803;DHT22;66074;50.764;6.090;2023-05-07T08:51:22;20.80;93.80
19803;DHT22;66074;50.764;6.090;2023-05-07T08:53:49;20.90;93.80
19803;DHT22;66074;50.764;6.090;2023-05-07T08:56:16;21.00;93.60
19803;DHT22;66074;50.764;6.090;2023-05-07T08:58:45;21.10;93.60
19803;DHT22;66074;50.764;6.090;2023-05-07T09:01:14;21.10;93.10
19803;DHT22;66074;50.764;6.090;2023-05-07T09:03:40;21.10;93.10
19803;DHT22;66074;50.764;6.090;2023-05-07T09:06:07;21.10;93.30
19803;DHT22;66074;50.764;6.090;2023-05-07T09:08:34;21.10;93.30
19803;DHT22;66074;50.764;6.090;2023-05-07T09:11:00;21.00;93.20
19803;DHT22;66074;50.764;6.090;2023-05-07T09:13:29;20.90;93.00
19803;DHT22;66074;50.764;6.090;2023-05-07T09:15:56;20.90;93.00
19803;DHT22;66074;50.764;6.090;2023-05-07T09:18:23;21.00;92.90
19803;DHT22;66074;50.764;6.090;2023-05-07T09:20:54;21.00;92.80
19803;DHT22;66074;50.764;6.090;2023-05-07T09:23:20;21.00;92.60
19803;DHT22;66074;50.764;6.090;2023-05-07T09:25:50;21.00;92.70
19803;DHT22;66074;50.764;6.090;2023-05-07T09:28:16;21.00;92.50
19803;DHT22;66074;50.764;6.090;2023-05-07T09:30:45;21.00;92.30
19803;DHT22;66074;50.764;6.090;2023-05-07T09:33:10;21.10;92.10
19803;DHT22;66074;50.764;6.090;2023-05-07T09:35:37;21.10;92.20
19803;DHT22;66074;50.764;6.090;2023-05-07T09:38:03;21.20;91.90
19803;DHT22;66074;50.764;6.090;2023-05-07T09:40:30;21.30;92.10
19803;DHT22;66074;50.764;6.090;2023-05-07T09:43:18;21.40;92.10
19803;DHT22;66074;50.764;6.090;2023-05-07T09:45:42;21.50;91.90
19803;DHT22;66074;50.764;6.090;2023-05-07T09:48:08;21.60;91.80
19803;DHT22;66074;50.764;6.090;2023-05-07T09:50:48;21.60;91.60
19803;DHT22;66074;50.764;6.090;2023-05-07T09:53:14;21.70;91.00
19803;DHT22;66074;50.764;6.090;2023-05-07T09:55:42;21.70;91.50
19803;DHT22;66074;50.764;6.090;2023-05-07T09:58:08;21.80;91.00
19803;DHT22;66074;50.764;6.090;2023-05-07T10:00:35;21.80;91.00
19803;DHT22;66074;50.764;6.090;2023-05-07T10:03:02;21.80;91.00
19803;DHT22;66074;50.764;6.090;2023-05-07T10:05:28;21.90;91.10
19803;DHT22;66074;50.764;6.090;2023-05-07T10:07:54;21.90;91.10
19803;DHT22;66074;50.764;6.090;2023-05-07T10:10:22;21.90;91.00
19803;DHT22;66074;50.764;6.090;2023-05-07T10:12:49;22.00;91.10
19803;DHT22;66074;50.764;6.090;2023-05-07T10:15:16;21.90;90.90
19803;DHT22;66074;50.764;6.090;2023-05-07T10:17:42;21.80;91.00
19803;DHT22;66074;50.764;6.090;2023-05-07T10:20:08;21.80;90.90
19803;DHT22;66074;50.764;6.090;2023-05-07T10:22:40;21.60;90.70
19803;DHT22;66074;50.764;6.090;2023-05-07T10:25:26;21.50;90.40
19803;DHT22;66074;50.764;6.090;2023-05-07T10:27:55;21.40;90.60
19803;DHT22;66074;50.764;6.090;2023-05-07T10:32:55;21.50;90.80
19803;DHT22;66074;50.764;6.090;2023-05-07T10:35:24;21.50;90.70
19803;DHT22;66074;50.764;6.090;2023-05-07T10:37:51;21.40;90.50
19803;DHT22;66074;50.764;6.090;2023-05-07T10:40:17;21.30;90.60
19803;DHT22;66074;50.764;6.090;2023-05-07T10:42:57;21.30;90.60
19803;DHT22;66074;50.764;6.090;2023-05-07T10:45:25;21.40;89.70
19803;DHT22;66074;50.764;6.090;2023-05-07T10:48:12;21.40;90.40
19803;DHT22;66074;50.764;6.090;2023-05-07T10:50:39;21.30;88.90
19803;DHT22;66074;50.764;6.090;2023-05-07T10:53:20;21.30;90.10
19803;DHT22;66074;50.764;6.090;2023-05-07T10:56:32;21.30;89.40
19803;DHT22;66074;50.764;6.090;2023-05-07T10:58:32;21.40;90.30
19803;DHT22;66074;50.764;6.090;2023-05-07T11:01:01;21.40;90.30
19803;DHT22;66074;50.764;6.090;2023-05-07T11:03:27;21.40;90.10
19803;DHT22;66074;50.764;6.090;2023-05-07T11:06:15;21.30;90.10
19803;DHT22;66074;50.764;6.090;2023-05-07T11:11:18;21.30;89.30
19803;DHT22;66074;50.764;6.090;2023-05-07T11:13:46;21.20;90.00
19803;DHT22;66074;50.764;6.090;2023-05-07T11:16:20;21.20;90.00
19803;DHT22;66074;50.764;6.090;2023-05-07T11:18:50;21.30;89.90
19803;DHT22;66074;50.764;6.090;2023-05-07T11:21:40;21.40;90.20
19803;DHT22;66074;50.764;6.090;2023-05-07T11:24:07;21.40;89.30
19803;DHT22;66074;50.764;6.090;2023-05-07T11:26:48;21.40;90.10
19803;DHT22;66074;50.764;6.090;2023-05-07T11:29:18;21.40;89.80
19803;DHT22;66074;50.764;6.090;2023-05-07T11:31:47;21.50;90.30
19803;DHT22;66074;50.764;6.090;2023-05-07T11:34:14;21.40;90.60
19803;DHT22;66074;50.764;6.090;2023-05-07T11:36:42;21.30;90.80
19803;DHT22;66074;50.764;6.090;2023-05-07T11:41:54;21.30;91.70
19803;DHT22;66074;50.764;6.090;2023-05-07T11:44:19;21.20;91.40
19803;DHT22;66074;50.764;6.090;2023-05-07T11:46:45;21.20;91.60
19803;DHT22;66074;50.764;6.090;2023-05-07T11:49:11;21.10;91.80
19803;DHT22;66074;50.764;6.090;2023-05-07T11:51:37;21.10;92.10
19803;DHT22;66074;50.764;6.090;2023-05-07T11:54:04;21.10;92.10
19803;DHT22;66074;50.764;6.090;2023-05-07T11:56:34;21.00;92.30
19803;DHT22;66074;50.764;6.090;2023-05-07T11:59:00;21.00;92.40
19803;DHT22;66074;50.764;6.090;2023-05-07T12:01:26;21.00;92.20
19803;DHT22;66074;50.764;6.090;2023-05-07T12:03:52;20.90;92.20
19803;DHT22;66074;50.764;6.090;2023-05-07T12:06:18;20.90;92.30
19803;DHT22;66074;50.764;6.090;2023-05-07T12:08:45;20.80;92.20
19803;DHT22;66074;50.764;6.090;2023-05-07T12:11:22;20.80;92.20
19803;DHT22;66074;50.764;6.090;2023-05-07T12:13:48;20.70;92.70
19803;DHT22;66074;50.764;6.090;2023-05-07T12:16:14;20.50;92.50
19803;DHT22;66074;50.764;6.090;2023-05-07T12:18:40;20.50;92.80
19803;DHT22;66074;50.764;6.090;2023-05-07T12:21:06;20.50;93.00
19803;DHT22;66074;50.764;6.090;2023-05-07T12:23:34;20.50;93.20
19803;DHT22;66074;50.764;6.090;2023-05-07T12:26:00;20.50;93.30
19803;DHT22;66074;50.764;6.090;2023-05-07T12:28:26;20.50;93.40
19803;DHT22;66074;50.764;6.090;2023-05-07T12:30:51;20.50;93.50
19803;DHT22;66074;50.764;6.090;2023-05-07T12:33:19;20.60;93.70
19803;DHT22;66074;50.764;6.090;2023-05-07T12:35:47;20.70;93.90
19803;DHT22;66074;50.764;6.090;2023-05-07T12:38:14;20.80;94.00
19803;DHT22;66074;50.764;6.090;2023-05-07T12:40:45;21.00;93.90
19803;DHT22;66074;50.764;6.090;2023-05-07T12:43:19;21.10;93.90
19803;DHT22;66074;50.764;6.090;2023-05-07T12:45:47;21.30;94.00
19803;DHT22;66074;50.764;6.090;2023-05-07T12:48:13;21.50;93.90
19803;DHT22;66074;50.764;6.090;2023-05-07T12:50:39;21.60;93.70
19803;DHT22;66074;50.764;6.090;2023-05-07T12:53:06;21.70;93.60
19803;DHT22;66074;50.764;6.090;2023-05-07T12:55:47;21.90;93.60
19803;DHT22;66074;50.764;6.090;2023-05-07T12:58:27;22.10;93.40
19803;DHT22;66074;50.764;6.090;2023-05-07T13:00:53;22.10;93.30
19803;DHT22;66074;50.764;6.090;2023-05-07T13:03:25;22.20;93.30
19803;DHT22;66074;50.764;6.090;2023-05-07T13:05:51;22.20;93.10
19803;DHT22;66074;50.764;6.090;2023-05-07T13:08:27;22.20;93.10
19803;DHT22;66074;50.764;6.090;2023-05-07T13:10:54;22.30;93.10
19803;DHT22;66074;50.764;6.090;2023-05-07T13:13:20;22.30;93.10
19803;DHT22;66074;50.764;6.090;2023-05-07T13:15:47;22.40;92.80
19803;DHT22;66074;50.764;6.090;2023-05-07T13:18:13;22.40;92.90
19803;DHT22;66074;50.764;6.090;2023-05-07T13:20:38;22.50;93.00
19803;DHT22;66074;50.764;6.090;2023-05-07T13:23:04;22.30;92.80
19803;DHT22;66074;50.764;6.090;2023-05-07T13:25:30;22.20;92.80
19803;DHT22;66074;50.764;6.090;2023-05-07T13:27:59;22.20;92.80
19803;DHT22;66074;50.764;6.090;2023-05-07T13:30:25;22.10;92.70
19803;DHT22;66074;50.764;6.090;2023-05-07T13:32:54;21.70;92.50
19803;DHT22;66074;50.764;6.090;2023-05-07T13:35:20;21.70;92.70
19803;DHT22;66074;50.764;6.090;2023-05-07T13:37:46;21.70;92.80
19803;DHT22;66074;50.764;6.090;2023-05-07T13:40:13;21.70;92.80
19803;DHT22;66074;50.764;6.090;2023-05-07T13:42:39;21.70;92.80
19803;DHT22;66074;50.764;6.090;2023-05-07T13:45:05;21.80;92.70
19803;DHT22;66074;50.764;6.090;2023-05-07T13:47:31;21.90;92.60
19803;DHT22;66074;50.764;6.090;2023-05-07T13:49:56;21.70;92.60
19803;DHT22;66074;50.764;6.090;2023-05-07T13:52:22;21.80;92.70
19803;DHT22;66074;50.764;6.090;2023-05-07T13:54:48;21.80;92.70
19803;DHT22;66074;50.764;6.090;2023-05-07T13:57:13;21.70;92.60
19803;DHT22;66074;50.764;6.090;2023-05-07T13:59:40;21.60;92.80
19803;DHT22;66074;50.764;6.090;2023-05-07T14:02:06;21.60;92.60
19803;DHT22;66074;50.764;6.090;2023-05-07T14:04:32;21.70;93.00
19803;DHT22;66074;50.764;6.090;2023-05-07T14:06:57;21.70;92.70
19803;DHT22;66074;50.764;6.090;2023-05-07T14:09:23;21.60;92.70
19803;DHT22;66074;50.764;6.090;2023-05-07T14:11:49;21.50;92.90
19803;DHT22;66074;50.764;6.090;2023-05-07T14:14:24;21.50;93.20
19803;DHT22;66074;50.764;6.090;2023-05-07T14:16:50;21.50;93.30
19803;DHT22;66074;50.764;6.090;2023-05-07T14:19:16;21.60;93.40
19803;DHT22;66074;50.764;6.090;2023-05-07T14:21:41;21.60;93.30
19803;DHT22;66074;50.764;6.090;2023-05-07T14:24:07;21.60;93.20
19803;DHT22;66074;50.764;6.090;2023-05-07T14:26:36;21.60;93.20
19803;DHT22;66074;50.764;6.090;2023-05-07T14:29:02;21.40;93.10
19803;DHT22;66074;50.764;6.090;2023-05-07T14:31:28;21.40;93.20
19803;DHT22;66074;50.764;6.090;2023-05-07T14:33:54;21.40;93.30
19803;DHT22;66074;50.764;6.090;2023-05-07T14:36:20;21.40;93.30
19803;DHT22;66074;50.764;6.090;2023-05-07T14:38:47;21.40;93.30
19803;DHT22;66074;50.764;6.090;2023-05-07T14:41:12;21.40;93.40
19803;DHT22;66074;50.764;6.090;2023-05-07T14:43:38;21.40;93.40
19803;DHT22;66074;50.764;6.090;2023-05-07T14:46:07;21.40;93.40
19803;DHT22;66074;50.764;6.090;2023-05-07T14:48:32;21.40;93.40
19803;DHT22;66074;50.764;6.090;2023-05-07T14:50:58;21.30;93.40
19803;DHT22;66074;50.764;6.090;2023-05-07T14:53:23;21.20;93.40
19803;DHT22;66074;50.764;6.090;2023-05-07T14:55:49;21.10;93.50
19803;DHT22;66074;50.764;6.090;2023-05-07T14:58:15;21.00;93.50
19803;DHT22;66074;50.764;6.090;2023-05-07T15:00:41;21.00;93.60
19803;DHT22;66074;50.764;6.090;2023-05-07T15:03:08;21.00;93.90
19803;DHT22;66074;50.764;6.090;2023-05-07T15:06:03;20.90;93.60
19803;DHT22;66074;50.764;6.090;2023-05-07T15:08:32;20.80;94.10
19803;DHT22;66074;50.764;6.090;2023-05-07T15:10:58;20.80;93.80
19803;DHT22;66074;50.764;6.090;2023-05-07T15:13:24;20.70;93.70
19803;DHT22;66074;50.764;6.090;2023-05-07T15:15:50;20.60;93.80
19803;DHT22;66074;50.764;6.090;2023-05-07T15:18:15;20.60;93.90
19803;DHT22;66074;50.764;6.090;2023-05-07T15:20:44;20.60;93.80
19803;DHT22;66074;50.764;6.090;2023-05-07T15:23:10;20.60;93.80
19803;DHT22;66074;50.764;6.090;2023-05-07T15:25:37;20.50;93.50
19803;DHT22;66074;50.764;6.090;2023-05-07T15:28:03;20.30;93.20
19803;DHT22;66074;50.764;6.090;2023-05-07T15:30:28;20.30;93.30
19803;DHT22;66074;50.764;6.090;2023-05-07T15:32:54;20.30;93.40
19803;DHT22;66074;50.764;6.090;2023-05-07T15:35:21;20.30;93.50